createdAt,value
2023-10-14T00:01:29.863Z,71.90
2023-10-14T00:03:57.754Z,71.70
2023-10-14T00:06:25.725Z,71.70
2023-10-14T00:08:59.802Z,72.40
2023-10-14T00:11:34.499Z,72.20
2023-10-14T00:14:01.561Z,72.20
2023-10-14T00:16:28.519Z,72.40
2023-10-14T00:19:00.308Z,72.90
2023-10-14T00:21:28.079Z,72.90
2023-10-14T00:23:58.717Z,73.00
2023-10-14T00:26:26.308Z,73.40
2023-10-14T00:28:55.909Z,74.10
2023-10-14T00:31:24.436Z,74.80
2023-10-14T00:33:54.873Z,74.80
2023-10-14T00:36:22.774Z,75.40
2023-10-14T00:39:02.094Z,77.00
2023-10-14T00:41:29.295Z,77.50
2023-10-14T00:43:58.033Z,78.20
2023-10-14T00:46:25.218Z,78.50
2023-10-14T00:48:59.986Z,79.40
2023-10-14T00:51:27.979Z,79.40
2023-10-14T00:54:02.805Z,79.10
2023-10-14T00:56:32.513Z,79.40
2023-10-14T00:59:05.156Z,79.30
2023-10-14T01:01:32.930Z,79.30
2023-10-14T01:04:19.437Z,79.30
2023-10-14T01:07:05.586Z,79.10
2023-10-14T01:09:53.714Z,79.10
2023-10-14T01:12:39.276Z,79.20
2023-10-14T01:15:22.404Z,79.30
2023-10-14T01:17:55.217Z,79.40
2023-10-14T01:20:22.860Z,79.40
2023-10-14T01:22:58.457Z,79.20
2023-10-14T01:25:33.534Z,79.60
2023-10-14T01:28:07.463Z,79.20
2023-10-14T01:30:39.360Z,79.00
2023-10-14T01:33:21.624Z,79.40
2023-10-14T01:35:52.831Z,79.30
2023-10-14T01:38:19.833Z,79.10
2023-10-14T01:40:53.682Z,79.00
2023-10-14T01:43:25.356Z,78.80
2023-10-14T01:46:02.192Z,78.60
2023-10-14T01:48:45.678Z,78.50
2023-10-14T01:51:12.851Z,78.20
2023-10-14T01:53:40.012Z,78.10
2023-10-14T01:56:08.279Z,77.60
2023-10-14T01:58:35.751Z,77.40
2023-10-14T02:01:17.032Z,77.20
2023-10-14T02:03:48.754Z,76.80
2023-10-14T02:06:28.094Z,76.60
2023-10-14T02:08:59.149Z,76.10
2023-10-14T02:11:26.444Z,75.80
2023-10-14T02:13:53.774Z,75.70
2023-10-14T02:16:30.800Z,75.30
2023-10-14T02:19:16.829Z,75.50
2023-10-14T02:21:44.844Z,74.40
2023-10-14T02:24:11.963Z,74.20
2023-10-14T02:26:39.981Z,73.60
2023-10-14T02:29:08.778Z,73.40
2023-10-14T02:31:39.726Z,72.70
2023-10-14T02:34:08.775Z,72.80
2023-10-14T02:36:51.434Z,72.50
2023-10-14T02:39:27.050Z,72.30
2023-10-14T02:42:01.209Z,72.30
2023-10-14T02:44:29.898Z,72.40
2023-10-14T02:47:03.035Z,72.50
2023-10-14T02:49:40.079Z,71.90
2023-10-14T02:52:13.068Z,72.10
2023-10-14T02:54:55.961Z,72.20
2023-10-14T02:57:23.193Z,72.30
2023-10-14T02:59:50.353Z,72.30
2023-10-14T03:02:24.472Z,72.40
2023-10-14T03:05:00.608Z,72.40
2023-10-14T03:07:29.505Z,72.80
2023-10-14T03:10:11.747Z,72.80
2023-10-14T03:12:43.986Z,72.80
2023-10-14T03:15:20.542Z,72.90
2023-10-14T03:17:57.722Z,73.20
2023-10-14T03:20:27.289Z,73.50
2023-10-14T03:22:59.186Z,73.50
2023-10-14T03:25:28.364Z,73.20
2023-10-14T03:28:01.711Z,73.40
2023-10-14T03:30:28.855Z,73.40
2023-10-14T03:32:56.284Z,73.50
2023-10-14T03:35:25.119Z,73.70
2023-10-14T03:37:55.270Z,73.70
2023-10-14T03:40:41.342Z,73.40
2023-10-14T03:43:16.083Z,73.50
2023-10-14T03:45:54.723Z,74.00
2023-10-14T03:48:22.354Z,73.80
2023-10-14T03:50:49.444Z,73.70
2023-10-14T03:53:18.156Z,73.40
2023-10-14T03:55:45.022Z,73.70
2023-10-14T03:58:13.624Z,74.00
2023-10-14T04:00:41.091Z,74.10
2023-10-14T04:03:25.713Z,74.10
2023-10-14T04:06:01.181Z,74.50
2023-10-14T04:08:40.631Z,74.90
2023-10-14T04:11:17.023Z,74.80
2023-10-14T04:13:56.031Z,75.00
2023-10-14T04:16:29.063Z,75.30
2023-10-14T04:19:09.458Z,75.60
2023-10-14T04:21:37.157Z,75.60
2023-10-14T04:24:20.555Z,75.70
2023-10-14T04:26:50.105Z,75.90
2023-10-14T04:29:35.849Z,76.00
2023-10-14T04:32:15.332Z,76.20
2023-10-14T04:34:44.163Z,76.30
2023-10-14T04:37:17.212Z,76.40
2023-10-14T04:39:44.192Z,76.50
2023-10-14T04:42:20.126Z,76.60
2023-10-14T04:44:57.812Z,76.80
2023-10-14T04:47:37.739Z,76.60
2023-10-14T04:50:15.789Z,76.50
2023-10-14T04:52:43.320Z,76.50
2023-10-14T04:55:22.405Z,76.60
2023-10-14T04:58:08.177Z,76.60
2023-10-14T05:00:43.213Z,76.40
2023-10-14T05:03:20.659Z,76.90
2023-10-14T05:05:57.197Z,76.60
2023-10-14T05:08:28.729Z,76.60
2023-10-14T05:10:57.708Z,76.80
2023-10-14T05:13:33.277Z,76.60
2023-10-14T05:16:22.380Z,76.80
2023-10-14T05:19:07.659Z,76.30
2023-10-14T05:21:38.257Z,76.40
2023-10-14T05:24:13.566Z,76.00
2023-10-14T05:26:48.234Z,76.10
2023-10-14T05:29:19.930Z,76.20
2023-10-14T05:31:51.836Z,76.50
2023-10-14T05:34:26.328Z,76.30
2023-10-14T05:36:56.903Z,76.70
2023-10-14T05:39:24.530Z,77.50
2023-10-14T05:41:59.375Z,78.30
2023-10-14T05:44:30.585Z,79.10
2023-10-14T05:46:57.686Z,81.10
2023-10-14T05:49:25.839Z,84.20
2023-10-14T05:51:53.608Z,89.10
2023-10-14T05:54:24.047Z,91.40
2023-10-14T05:57:01.489Z,93.10
2023-10-14T05:59:28.232Z,95.10
2023-10-14T06:01:56.083Z,96.30
2023-10-14T06:04:22.942Z,96.60
2023-10-14T06:06:49.907Z,96.60
2023-10-14T06:09:18.551Z,96.60
2023-10-14T06:11:48.512Z,96.60
2023-10-14T06:14:15.327Z,96.60
2023-10-14T06:16:42.185Z,96.60
2023-10-14T06:19:13.971Z,96.60
2023-10-14T06:21:40.954Z,96.60
2023-10-14T06:24:15.855Z,96.60
2023-10-14T06:26:42.761Z,96.60
2023-10-14T06:29:11.007Z,96.60
2023-10-14T06:31:38.945Z,96.60
2023-10-14T06:34:10.398Z,96.60
2023-10-14T06:36:45.677Z,96.60
2023-10-14T06:39:15.995Z,96.50
2023-10-14T06:41:45.567Z,96.30
2023-10-14T06:44:16.263Z,95.40
2023-10-14T06:46:46.475Z,94.40
2023-10-14T06:49:15.315Z,94.40
2023-10-14T06:51:43.544Z,94.40
2023-10-14T06:54:10.970Z,94.10
2023-10-14T06:56:37.908Z,93.90
2023-10-14T06:59:06.851Z,93.60
2023-10-14T07:01:38.190Z,93.50
2023-10-14T07:04:05.606Z,93.60
2023-10-14T07:06:33.076Z,93.10
2023-10-14T07:09:01.682Z,92.50
2023-10-14T07:11:28.538Z,92.50
2023-10-14T07:13:55.445Z,91.90
2023-10-14T07:16:22.389Z,91.20
2023-10-14T07:18:49.487Z,91.40
2023-10-14T07:21:16.352Z,90.90
2023-10-14T07:23:43.194Z,91.20
2023-10-14T07:26:12.711Z,90.40
2023-10-14T07:28:44.114Z,90.50
2023-10-14T07:31:12.432Z,90.30
2023-10-14T07:33:40.642Z,90.50
2023-10-14T07:36:07.957Z,91.00
2023-10-14T07:38:37.993Z,91.50
2023-10-14T07:41:06.451Z,91.90
2023-10-14T07:43:35.113Z,92.40
2023-10-14T07:46:04.428Z,94.60
2023-10-14T07:48:38.659Z,95.50
2023-10-14T07:51:14.522Z,96.60
2023-10-14T07:53:49.515Z,96.60
2023-10-14T07:56:16.443Z,96.60
2023-10-14T07:58:43.407Z,96.60
2023-10-14T08:01:16.711Z,96.60
2023-10-14T08:03:43.810Z,96.60
2023-10-14T08:06:11.761Z,96.60
2023-10-14T08:08:48.771Z,96.60
2023-10-14T08:11:16.116Z,96.60
2023-10-14T08:13:43.380Z,96.40
2023-10-14T08:16:13.073Z,96.00
2023-10-14T08:18:42.992Z,95.90
2023-10-14T08:21:10.706Z,95.20
2023-10-14T08:23:37.550Z,94.80
2023-10-14T08:26:04.807Z,93.30
2023-10-14T08:28:34.615Z,91.40
2023-10-14T08:31:05.847Z,92.00
2023-10-14T08:33:32.754Z,90.90
2023-10-14T08:35:59.657Z,92.40
2023-10-14T08:38:29.426Z,93.00
2023-10-14T08:40:57.496Z,93.50
2023-10-14T08:43:32.010Z,93.70
2023-10-14T08:46:01.433Z,94.10
2023-10-14T08:48:30.464Z,94.00
2023-10-14T08:51:01.095Z,94.80
2023-10-14T08:53:28.625Z,94.30
2023-10-14T08:55:58.982Z,93.20
2023-10-14T08:58:26.386Z,93.80
2023-10-14T09:00:54.867Z,91.00
2023-10-14T09:03:22.000Z,91.20
2023-10-14T09:05:49.155Z,90.70
2023-10-14T09:08:17.633Z,92.10
2023-10-14T09:10:45.665Z,90.60
2023-10-14T09:13:20.242Z,89.20
2023-10-14T09:15:48.100Z,89.80
2023-10-14T09:18:23.097Z,89.60
2023-10-14T09:20:57.864Z,88.70
2023-10-14T09:23:31.028Z,88.50
2023-10-14T09:25:59.976Z,89.40
2023-10-14T09:28:35.336Z,89.00
2023-10-14T09:31:10.179Z,87.00
2023-10-14T09:33:42.558Z,90.20
2023-10-14T09:36:21.845Z,89.30
2023-10-14T09:38:50.390Z,89.10
2023-10-14T09:41:18.339Z,89.90
2023-10-14T09:43:47.433Z,89.30
2023-10-14T09:46:18.517Z,88.60
2023-10-14T09:48:46.745Z,87.30
2023-10-14T09:51:16.314Z,87.60
2023-10-14T09:53:46.226Z,87.10
2023-10-14T09:56:15.954Z,86.20
2023-10-14T09:58:47.618Z,86.50
2023-10-14T10:01:16.415Z,85.70
2023-10-14T10:03:58.655Z,86.10
2023-10-14T10:06:49.181Z,86.50
2023-10-14T10:09:31.150Z,86.40
2023-10-14T10:12:00.107Z,86.80
2023-10-14T10:14:27.407Z,86.30
2023-10-14T10:16:57.783Z,85.90
2023-10-14T10:19:45.138Z,85.10
2023-10-14T10:22:18.321Z,85.90
2023-10-14T10:24:48.834Z,87.30
2023-10-14T10:27:18.124Z,87.10
2023-10-14T10:29:49.683Z,86.60
2023-10-14T10:32:31.966Z,86.20
2023-10-14T10:35:08.061Z,86.20
2023-10-14T10:37:54.617Z,84.10
2023-10-14T10:40:29.645Z,79.00
2023-10-14T10:43:11.270Z,79.70
2023-10-14T10:45:41.437Z,77.30
2023-10-14T10:48:15.387Z,77.00
2023-10-14T10:50:50.156Z,75.30
2023-10-14T10:53:20.020Z,78.10
2023-10-14T10:55:49.394Z,79.10
2023-10-14T10:58:17.312Z,79.40
2023-10-14T11:00:49.586Z,78.40
2023-10-14T11:03:17.676Z,79.50
2023-10-14T11:05:46.970Z,81.40
2023-10-14T11:08:17.376Z,79.10
2023-10-14T11:10:45.836Z,78.60
2023-10-14T11:13:14.851Z,79.10
2023-10-14T11:15:44.683Z,76.30
2023-10-14T11:18:23.586Z,74.00
2023-10-14T11:20:55.398Z,73.20
2023-10-14T11:23:22.393Z,72.80
2023-10-14T11:25:52.205Z,73.50
2023-10-14T11:28:19.167Z,72.00
2023-10-14T11:30:47.505Z,69.80
2023-10-14T11:33:16.235Z,70.50
2023-10-14T11:35:43.123Z,72.30
2023-10-14T11:38:14.168Z,72.20
2023-10-14T11:40:46.538Z,72.50
2023-10-14T11:43:13.453Z,72.50
2023-10-14T11:45:44.511Z,74.60
2023-10-14T11:48:44.939Z,74.30
2023-10-14T11:51:14.548Z,71.30
2023-10-14T11:53:45.211Z,74.30
2023-10-14T11:56:14.913Z,72.90
2023-10-14T11:58:42.068Z,72.90
2023-10-14T12:01:12.227Z,72.10
2023-10-14T12:03:39.786Z,73.20
2023-10-14T12:06:09.598Z,73.60
2023-10-14T12:08:40.480Z,73.60
2023-10-14T12:11:10.017Z,72.80
2023-10-14T12:13:48.487Z,72.60
2023-10-14T12:16:17.131Z,73.00
2023-10-14T12:18:46.920Z,72.50
2023-10-14T12:21:14.664Z,74.40
2023-10-14T12:23:41.774Z,72.70
2023-10-14T12:26:26.975Z,72.00
2023-10-14T12:28:59.055Z,71.80
2023-10-14T12:31:28.681Z,71.50
2023-10-14T12:33:55.979Z,73.80
2023-10-14T12:36:23.834Z,73.20
2023-10-14T12:38:50.769Z,72.20
2023-10-14T12:41:23.832Z,72.20
2023-10-14T12:43:53.808Z,69.80
2023-10-14T12:46:21.245Z,68.60
2023-10-14T12:48:52.259Z,67.60
2023-10-14T12:51:26.647Z,67.50
2023-10-14T12:53:58.921Z,68.30
2023-10-14T12:56:27.880Z,67.10
2023-10-14T12:58:58.928Z,70.10
2023-10-14T13:01:26.489Z,69.40
2023-10-14T13:03:55.044Z,68.30
2023-10-14T13:06:27.739Z,70.00
2023-10-14T13:09:02.039Z,70.40
2023-10-14T13:11:30.543Z,69.40
2023-10-14T13:14:00.492Z,68.80
2023-10-14T13:16:28.269Z,69.20
2023-10-14T13:18:57.911Z,67.20
2023-10-14T13:21:31.489Z,67.20
2023-10-14T13:24:04.858Z,67.40
2023-10-14T13:26:32.049Z,68.90
2023-10-14T13:28:59.038Z,67.60
2023-10-14T13:31:26.071Z,69.60
2023-10-14T13:33:53.875Z,67.30
2023-10-14T13:36:24.582Z,68.70
2023-10-14T13:38:51.524Z,67.30
2023-10-14T13:41:18.743Z,67.80
2023-10-14T13:43:47.323Z,67.80
2023-10-14T13:46:15.138Z,66.70
2023-10-14T13:48:41.983Z,65.00
2023-10-14T13:51:08.734Z,65.40
2023-10-14T13:53:36.077Z,66.80
2023-10-14T13:56:11.453Z,64.90
2023-10-14T13:58:38.390Z,64.00
2023-10-14T14:01:08.503Z,65.20
2023-10-14T14:03:38.051Z,64.70
2023-10-14T14:06:08.726Z,65.90
2023-10-14T14:08:35.792Z,66.40
2023-10-14T14:11:04.936Z,64.60
2023-10-14T14:13:32.833Z,64.80
2023-10-14T14:16:03.270Z,64.10
2023-10-14T14:18:30.662Z,66.00
2023-10-14T14:20:57.672Z,64.60
2023-10-14T14:23:24.558Z,66.20
2023-10-14T14:25:51.692Z,65.60
2023-10-14T14:28:19.321Z,65.90
2023-10-14T14:30:50.746Z,67.70
2023-10-14T14:33:18.767Z,66.80
2023-10-14T14:35:48.465Z,65.70
2023-10-14T14:38:17.427Z,66.40
2023-10-14T14:40:46.190Z,65.90
2023-10-14T14:43:13.843Z,67.10
2023-10-14T14:45:41.145Z,66.70
2023-10-14T14:48:09.328Z,67.30
2023-10-14T14:50:37.710Z,67.30
2023-10-14T14:53:07.662Z,67.60
2023-10-14T14:55:41.773Z,67.00
2023-10-14T14:58:08.859Z,68.30
2023-10-14T15:00:35.736Z,69.10
2023-10-14T15:03:08.204Z,68.60
2023-10-14T15:05:38.718Z,68.30
2023-10-14T15:08:14.101Z,68.30
2023-10-14T15:10:45.904Z,68.60
2023-10-14T15:13:14.900Z,67.60
2023-10-14T15:15:50.741Z,67.00
2023-10-14T15:18:17.850Z,67.50
2023-10-14T15:20:46.706Z,67.40
2023-10-14T15:23:16.157Z,68.00
2023-10-14T15:25:43.554Z,67.60
2023-10-14T15:28:12.691Z,67.50
2023-10-14T15:30:39.976Z,67.00
2023-10-14T15:33:07.471Z,67.50
2023-10-14T15:35:35.596Z,67.50
2023-10-14T15:38:03.096Z,68.20
2023-10-14T15:40:33.473Z,67.60
2023-10-14T15:43:02.006Z,68.80
2023-10-14T15:45:30.374Z,68.10
2023-10-14T15:48:00.795Z,67.90
2023-10-14T15:50:29.778Z,68.30
2023-10-14T15:52:58.033Z,68.10
2023-10-14T15:55:28.424Z,67.40
2023-10-14T15:57:58.640Z,68.20
2023-10-14T16:00:35.032Z,68.50
2023-10-14T16:03:10.838Z,68.20
2023-10-14T16:05:40.371Z,68.70
2023-10-14T16:08:09.287Z,68.30
2023-10-14T16:10:38.451Z,69.30
2023-10-14T16:13:07.352Z,69.00
2023-10-14T16:15:36.347Z,69.30
2023-10-14T16:18:04.924Z,68.40
2023-10-14T16:20:32.198Z,68.90
2023-10-14T16:23:04.874Z,69.20
2023-10-14T16:25:32.197Z,69.00
2023-10-14T16:28:00.032Z,69.50
2023-10-14T16:30:28.588Z,70.00
2023-10-14T16:32:58.626Z,70.00
2023-10-14T16:35:34.215Z,70.40
2023-10-14T16:38:02.102Z,70.10
2023-10-14T16:40:29.645Z,70.40
2023-10-14T16:43:04.095Z,70.80
2023-10-14T16:45:37.410Z,71.90
2023-10-14T16:48:08.744Z,71.50
2023-10-14T16:50:39.765Z,71.70
2023-10-14T16:53:09.843Z,72.20
2023-10-14T16:55:38.772Z,72.10
2023-10-14T16:58:06.739Z,72.20
2023-10-14T17:00:39.281Z,72.60
2023-10-14T17:03:07.703Z,72.60
2023-10-14T17:05:35.378Z,72.90
2023-10-14T17:08:05.426Z,71.80
2023-10-14T17:10:34.014Z,72.70
2023-10-14T17:13:06.243Z,72.60
2023-10-14T17:15:34.199Z,73.10
2023-10-14T17:18:03.601Z,73.50
2023-10-14T17:20:32.349Z,73.20
2023-10-14T17:23:03.820Z,73.70
2023-10-14T17:25:33.123Z,73.30
2023-10-14T17:28:02.246Z,73.50
2023-10-14T17:30:29.537Z,73.80
2023-10-14T17:33:02.397Z,74.00
2023-10-14T17:35:30.087Z,73.80
2023-10-14T17:38:01.779Z,74.20
2023-10-14T17:40:30.299Z,74.50
2023-10-14T17:43:00.776Z,74.90
2023-10-14T17:45:28.594Z,75.40
2023-10-14T17:47:57.942Z,74.90
2023-10-14T17:50:25.881Z,75.20
2023-10-14T17:53:01.002Z,75.50
2023-10-14T17:55:29.617Z,75.30
2023-10-14T17:57:59.132Z,75.20
2023-10-14T18:00:27.019Z,75.80
2023-10-14T18:03:08.843Z,76.50
2023-10-14T18:05:47.587Z,76.20
2023-10-14T18:08:21.008Z,76.20
2023-10-14T18:10:48.220Z,76.30
2023-10-14T18:13:15.955Z,77.00
2023-10-14T18:15:45.293Z,76.80
2023-10-14T18:18:13.700Z,77.10
2023-10-14T18:20:41.157Z,77.80
2023-10-14T18:23:08.432Z,78.00
2023-10-14T18:25:42.174Z,78.30
2023-10-14T18:28:10.281Z,78.30
2023-10-14T18:30:41.475Z,78.80
2023-10-14T18:33:10.366Z,79.50
2023-10-14T18:35:41.360Z,79.70
2023-10-14T18:38:11.957Z,80.10
2023-10-14T18:40:39.958Z,80.00
2023-10-14T18:43:08.424Z,80.50
2023-10-14T18:45:36.101Z,80.90
2023-10-14T18:48:11.708Z,80.40
2023-10-14T18:50:42.452Z,80.90
2023-10-14T18:53:11.854Z,81.00
2023-10-14T18:55:40.603Z,80.60
2023-10-14T18:58:12.449Z,80.80
2023-10-14T19:00:44.989Z,80.70
2023-10-14T19:03:13.203Z,80.40
2023-10-14T19:05:40.566Z,80.60
2023-10-14T19:08:12.862Z,80.90
2023-10-14T19:10:42.504Z,80.60
2023-10-14T19:13:10.551Z,80.80
2023-10-14T19:15:40.343Z,80.80
2023-10-14T19:18:09.650Z,80.50
2023-10-14T19:20:41.019Z,80.80
2023-10-14T19:23:08.416Z,80.40
2023-10-14T19:25:39.777Z,80.60
2023-10-14T19:28:10.327Z,82.00
2023-10-14T19:30:41.441Z,81.60
2023-10-14T19:33:11.424Z,80.40
2023-10-14T19:35:40.221Z,79.90
2023-10-14T19:38:07.994Z,80.40
2023-10-14T19:40:42.735Z,80.70
2023-10-14T19:43:13.721Z,80.60
2023-10-14T19:45:49.934Z,81.60
2023-10-14T19:48:17.210Z,80.80
2023-10-14T19:50:49.486Z,81.30
2023-10-14T19:53:16.653Z,80.20
2023-10-14T19:55:50.004Z,81.20
2023-10-14T19:58:19.005Z,81.00
2023-10-14T20:00:50.924Z,80.90
2023-10-14T20:03:20.635Z,80.80
2023-10-14T20:05:48.101Z,81.70
2023-10-14T20:08:18.460Z,82.40
2023-10-14T20:10:46.690Z,82.30
2023-10-14T20:13:17.226Z,82.20
2023-10-14T20:15:45.875Z,81.80
2023-10-14T20:18:13.996Z,81.60
2023-10-14T20:20:41.843Z,81.60
2023-10-14T20:23:09.848Z,81.60
2023-10-14T20:25:36.763Z,81.90
2023-10-14T20:28:04.683Z,82.60
2023-10-14T20:30:32.036Z,82.10
2023-10-14T20:32:59.649Z,82.50
2023-10-14T20:35:32.884Z,82.30
2023-10-14T20:38:00.524Z,82.70
2023-10-14T20:40:36.766Z,83.20
2023-10-14T20:43:08.658Z,83.60
2023-10-14T20:45:36.767Z,83.90
2023-10-14T20:48:05.478Z,83.30
2023-10-14T20:50:34.101Z,83.10
2023-10-14T20:53:01.010Z,83.20
2023-10-14T20:55:29.747Z,83.30
2023-10-14T20:57:59.162Z,83.60
2023-10-14T21:00:27.672Z,83.00
2023-10-14T21:02:58.946Z,82.90
2023-10-14T21:05:27.136Z,83.40
2023-10-14T21:07:54.173Z,82.90
2023-10-14T21:10:24.924Z,82.40
2023-10-14T21:12:52.296Z,82.70
2023-10-14T21:15:19.704Z,83.20
2023-10-14T21:17:47.050Z,83.40
2023-10-14T21:20:15.344Z,83.40
2023-10-14T21:22:46.007Z,83.30
2023-10-14T21:25:16.445Z,83.80
2023-10-14T21:27:44.888Z,84.10
2023-10-14T21:30:14.194Z,83.60
2023-10-14T21:32:42.722Z,84.00
2023-10-14T21:35:12.755Z,83.20
2023-10-14T21:37:42.570Z,83.60
2023-10-14T21:40:19.489Z,83.70
2023-10-14T21:42:47.599Z,84.20
2023-10-14T21:45:15.541Z,84.50
2023-10-14T21:47:43.217Z,84.10
2023-10-14T21:50:15.681Z,84.70
2023-10-14T21:52:50.560Z,85.50
2023-10-14T21:55:21.754Z,85.70
2023-10-14T21:57:53.560Z,85.60
2023-10-14T22:00:22.850Z,84.90
2023-10-14T22:02:50.754Z,85.10
2023-10-14T22:05:20.955Z,85.40
2023-10-14T22:07:49.202Z,85.20
2023-10-14T22:10:20.498Z,85.30
2023-10-14T22:12:48.964Z,85.40
2023-10-14T22:15:17.561Z,85.70
2023-10-14T22:17:46.394Z,85.60
2023-10-14T22:20:16.784Z,85.80
2023-10-14T22:22:50.141Z,85.80
2023-10-14T22:25:25.537Z,85.70
2023-10-14T22:27:53.317Z,85.90
2023-10-14T22:30:22.272Z,85.60
2023-10-14T22:32:50.058Z,85.80
2023-10-14T22:35:19.681Z,85.70
2023-10-14T22:37:48.345Z,86.00
2023-10-14T22:40:17.978Z,86.00
2023-10-14T22:42:48.534Z,86.20
2023-10-14T22:45:17.937Z,85.80
2023-10-14T22:47:45.246Z,86.10
2023-10-14T22:50:14.039Z,86.00
2023-10-14T22:52:42.013Z,86.10
2023-10-14T22:55:10.920Z,86.00
2023-10-14T22:57:39.321Z,86.50
2023-10-14T23:00:15.999Z,86.50
2023-10-14T23:02:44.482Z,86.90
2023-10-14T23:05:18.418Z,87.00
2023-10-14T23:07:45.649Z,86.70
2023-10-14T23:10:15.211Z,86.70
2023-10-14T23:12:42.903Z,86.60
2023-10-14T23:15:14.183Z,86.50
2023-10-14T23:17:45.823Z,86.10
2023-10-14T23:20:13.276Z,86.00
2023-10-14T23:22:40.178Z,86.00
2023-10-14T23:25:13.814Z,86.10
2023-10-14T23:27:44.143Z,86.20
2023-10-14T23:30:16.818Z,86.00
2023-10-14T23:32:48.749Z,86.00
2023-10-14T23:35:21.907Z,86.10
2023-10-14T23:37:50.302Z,85.90
2023-10-14T23:40:18.989Z,86.40
2023-10-14T23:42:47.329Z,86.20
2023-10-14T23:45:17.725Z,86.30
2023-10-14T23:47:51.375Z,86.10
2023-10-14T23:50:19.419Z,86.40
2023-10-14T23:52:52.296Z,86.30
2023-10-14T23:55:31.401Z,86.40
2023-10-14T23:57:58.440Z,87.00
